createdAt,value
2022-11-20T00:00:53.881Z,29.08
2022-11-20T00:03:27.821Z,29.10
2022-11-20T00:06:16.896Z,26.77
2022-11-20T00:08:51.114Z,32.53
2022-11-20T00:11:39.883Z,32.58
2022-11-20T00:14:19.882Z,39.33
2022-11-20T00:17:00.949Z,25.98
2022-11-20T00:19:40.895Z,26.90
2022-11-20T00:22:21.939Z,31.20
2022-11-20T00:25:01.875Z,31.13
2022-11-20T00:27:49.902Z,25.55
2022-11-20T00:30:23.794Z,35.25
2022-11-20T00:33:11.889Z,31.60
2022-11-20T00:35:45.822Z,32.78
2022-11-20T00:38:33.922Z,35.42
2022-11-20T00:41:10.487Z,24.30
2022-11-20T00:43:57.865Z,31.05
2022-11-20T00:46:31.955Z,31.88
2022-11-20T00:49:20.197Z,26.58
2022-11-20T00:51:54.837Z,25.58
2022-11-20T00:54:42.875Z,28.50
2022-11-20T00:57:16.791Z,24.77
2022-11-20T01:00:04.893Z,24.95
2022-11-20T01:02:38.818Z,26.05
2022-11-20T01:05:26.885Z,26.55
2022-11-20T01:08:06.881Z,32.22
2022-11-20T01:10:54.876Z,26.95
2022-11-20T01:13:45.014Z,27.92
2022-11-20T01:16:28.981Z,31.40
2022-11-20T01:19:09.902Z,27.25
2022-11-20T01:21:51.934Z,28.90
2022-11-20T01:24:31.897Z,31.90
2022-11-20T01:27:12.973Z,34.53
2022-11-20T01:29:56.902Z,27.42
2022-11-20T01:32:40.934Z,31.00
2022-11-20T01:35:20.889Z,27.15
2022-11-20T01:38:08.876Z,23.90
2022-11-20T01:40:42.923Z,32.78
2022-11-20T01:43:34.886Z,31.08
2022-11-20T01:46:23.910Z,25.30
2022-11-20T01:49:04.930Z,21.75
2022-11-20T01:52:03.898Z,23.25
2022-11-20T01:55:03.890Z,29.38
2022-11-20T01:57:51.909Z,24.60
2022-11-20T02:00:26.970Z,30.20
2022-11-20T02:03:16.856Z,29.25
2022-11-20T02:05:50.951Z,26.38
2022-11-20T02:08:39.882Z,24.67
2022-11-20T02:11:21.035Z,24.85
2022-11-20T02:14:02.894Z,29.05
2022-11-20T02:16:52.894Z,26.70
2022-11-20T02:19:31.809Z,27.98
2022-11-20T02:22:24.898Z,21.45
2022-11-20T02:25:01.685Z,25.05
2022-11-20T02:27:48.898Z,27.17
2022-11-20T02:30:22.857Z,26.35
2022-11-20T02:33:10.874Z,28.75
2022-11-20T02:35:46.414Z,30.10
2022-11-20T02:38:33.883Z,30.80
2022-11-20T02:41:07.840Z,29.25
2022-11-20T02:43:55.892Z,28.58
2022-11-20T02:46:29.887Z,28.20
2022-11-20T02:49:19.020Z,35.30
2022-11-20T02:51:59.898Z,32.63
2022-11-20T02:54:47.909Z,35.80
2022-11-20T02:57:35.892Z,34.90
2022-11-20T03:00:18.868Z,43.00
2022-11-20T03:03:05.898Z,38.97
2022-11-20T03:05:46.895Z,31.83
2022-11-20T03:08:33.907Z,33.42
2022-11-20T03:11:18.939Z,34.97
2022-11-20T03:14:09.893Z,35.03
2022-11-20T03:16:43.965Z,28.02
2022-11-20T03:19:30.870Z,29.73
2022-11-20T03:22:11.885Z,26.33
2022-11-20T03:24:59.910Z,33.97
2022-11-20T03:27:40.893Z,36.63
2022-11-20T03:30:30.742Z,31.25
2022-11-20T03:33:05.939Z,33.78
2022-11-20T03:35:52.890Z,30.58
2022-11-20T03:38:33.879Z,37.05
2022-11-20T03:41:31.895Z,33.53
2022-11-20T03:44:06.964Z,33.45
2022-11-20T03:46:53.888Z,27.75
2022-11-20T03:49:34.879Z,39.30
2022-11-20T03:52:21.883Z,34.22
2022-11-20T03:55:02.900Z,32.03
2022-11-20T03:57:56.890Z,29.23
2022-11-20T04:00:51.186Z,38.67
2022-11-20T04:06:16.929Z,33.08
2022-11-20T04:09:07.886Z,30.13
2022-11-20T04:11:42.961Z,39.05
2022-11-20T04:14:30.932Z,36.72
2022-11-20T04:17:04.932Z,39.10
2022-11-20T04:19:51.910Z,45.78
2022-11-20T04:22:25.966Z,42.28
2022-11-20T04:25:13.922Z,60.53
2022-11-20T04:27:54.902Z,41.78
2022-11-20T04:30:41.928Z,42.38
2022-11-20T04:33:15.985Z,52.88
2022-11-20T04:36:03.885Z,51.60
2022-11-20T04:38:45.012Z,56.45
2022-11-20T04:41:25.889Z,46.08
2022-11-20T04:44:14.889Z,41.13
2022-11-20T04:46:54.891Z,36.10
2022-11-20T04:49:35.992Z,23.17
2022-11-20T04:52:15.884Z,24.95
2022-11-20T04:54:57.398Z,47.00
2022-11-20T04:57:36.895Z,40.17
2022-11-20T05:00:17.969Z,36.22
2022-11-20T05:02:57.890Z,15.02
2022-11-20T05:05:39.965Z,43.88
2022-11-20T05:08:19.905Z,42.20
2022-11-20T05:11:07.894Z,49.25
2022-11-20T05:14:02.880Z,32.60
2022-11-20T05:16:49.897Z,31.10
2022-11-20T05:19:24.029Z,33.78
2022-11-20T05:22:12.896Z,28.80
2022-11-20T05:24:53.882Z,26.60
2022-11-20T05:27:40.886Z,26.88
2022-11-20T05:30:15.056Z,22.90
2022-11-20T05:33:01.894Z,22.70
2022-11-20T05:35:35.987Z,25.65
2022-11-20T05:38:23.908Z,32.75
2022-11-20T05:41:17.889Z,37.53
2022-11-20T05:43:52.373Z,36.20
2022-11-20T05:46:39.898Z,26.60
2022-11-20T05:49:20.194Z,30.52
2022-11-20T05:52:07.913Z,34.20
2022-11-20T05:54:48.896Z,29.88
2022-11-20T05:57:29.969Z,35.10
2022-11-20T06:00:11.896Z,30.00
2022-11-20T06:02:59.912Z,39.08
2022-11-20T06:05:41.905Z,46.75
2022-11-20T06:08:22.964Z,39.05
2022-11-20T06:11:02.924Z,41.78
2022-11-20T06:13:44.005Z,46.40
2022-11-20T06:16:26.921Z,37.42
2022-11-20T06:19:14.898Z,32.25
2022-11-20T06:22:08.879Z,43.15
2022-11-20T06:27:29.890Z,30.98
2022-11-20T06:30:17.922Z,39.10
2022-11-20T06:33:13.890Z,44.28
2022-11-20T06:36:10.449Z,40.47
2022-11-20T06:38:44.979Z,33.42
2022-11-20T06:41:32.918Z,39.25
2022-11-20T06:44:13.911Z,45.35
2022-11-20T06:47:00.915Z,40.42
2022-11-20T06:49:41.936Z,40.85
2022-11-20T06:52:39.529Z,40.30
2022-11-20T06:55:29.903Z,36.22
2022-11-20T06:58:03.972Z,39.65
2022-11-20T07:00:51.924Z,33.05
2022-11-20T07:03:32.917Z,40.80
2022-11-20T07:06:19.895Z,38.90
2022-11-20T07:08:53.994Z,40.92
2022-11-20T07:11:40.918Z,57.22
2022-11-20T07:14:21.995Z,88.22
2022-11-20T07:17:02.922Z,77.65
2022-11-20T07:19:50.906Z,52.80
2022-11-20T07:22:24.834Z,45.53
2022-11-20T07:25:12.898Z,43.83
2022-11-20T07:27:47.812Z,35.20
2022-11-20T07:30:35.914Z,41.47
2022-11-20T07:33:09.818Z,35.85
2022-11-20T07:35:57.898Z,38.28
2022-11-20T07:38:32.216Z,40.63
2022-11-20T07:41:19.884Z,43.13
2022-11-20T07:43:53.908Z,56.20
2022-11-20T07:46:41.926Z,41.70
2022-11-20T07:49:15.859Z,42.45
2022-11-20T07:52:05.489Z,70.57
2022-11-20T07:57:33.908Z,44.20
2022-11-20T08:00:17.899Z,38.60
2022-11-20T08:03:05.920Z,45.75
2022-11-20T08:05:40.832Z,47.25
2022-11-20T08:08:33.657Z,42.20
2022-11-20T08:11:33.925Z,54.33
2022-11-20T08:14:15.039Z,68.78
2022-11-20T08:16:55.920Z,57.00
2022-11-20T08:19:49.880Z,92.78
2022-11-20T08:22:36.911Z,69.82
2022-11-20T08:25:17.878Z,60.22
2022-11-20T08:28:18.722Z,69.65
2022-11-20T08:31:00.896Z,67.40
2022-11-20T08:33:47.878Z,58.38
2022-11-20T08:36:28.935Z,51.95
2022-11-20T08:39:23.091Z,82.65
2022-11-20T08:42:09.910Z,66.13
2022-11-20T08:44:44.161Z,58.28
2022-11-20T08:47:30.929Z,49.10
2022-11-20T08:50:05.026Z,53.22
2022-11-20T08:52:51.920Z,42.65
2022-11-20T08:55:26.025Z,47.90
2022-11-20T08:58:13.891Z,70.50
2022-11-20T09:00:55.076Z,57.35
2022-11-20T09:03:35.907Z,62.40
2022-11-20T09:06:17.086Z,96.13
2022-11-20T09:09:06.135Z,66.63
2022-11-20T09:11:54.894Z,63.33
2022-11-20T09:14:31.034Z,58.92
2022-11-20T09:17:20.893Z,48.25
2022-11-20T09:19:54.849Z,56.15
2022-11-20T09:22:42.922Z,58.47
2022-11-20T09:25:23.905Z,52.50
2022-11-20T09:28:11.909Z,55.55
2022-11-20T09:30:46.190Z,55.55
2022-11-20T09:33:33.923Z,58.08
2022-11-20T09:36:07.952Z,52.55
2022-11-20T09:38:55.898Z,60.45
2022-11-20T09:41:52.923Z,54.20
2022-11-20T09:44:49.903Z,58.50
2022-11-20T09:47:54.911Z,65.28
2022-11-20T09:50:45.891Z,59.92
2022-11-20T09:53:19.842Z,53.00
2022-11-20T09:56:07.931Z,61.03
2022-11-20T09:58:53.913Z,54.67
2022-11-20T10:01:43.920Z,54.65
2022-11-20T10:04:21.477Z,54.35
2022-11-20T10:07:32.016Z,56.67
2022-11-20T10:10:20.895Z,58.75
2022-11-20T10:13:32.928Z,66.55
2022-11-20T10:16:49.900Z,55.65
2022-11-20T10:19:49.951Z,71.65
2022-11-20T10:23:31.935Z,54.10
2022-11-20T10:26:35.891Z,65.78
2022-11-20T10:29:37.907Z,61.28
2022-11-20T10:32:31.967Z,52.10
2022-11-20T10:35:25.944Z,50.83
2022-11-20T10:38:08.075Z,55.40
2022-11-20T10:40:51.911Z,56.78
2022-11-20T10:43:47.900Z,57.80
2022-11-20T10:46:23.323Z,59.58
2022-11-20T10:49:10.914Z,67.05
2022-11-20T10:52:06.976Z,66.38
2022-11-20T10:54:52.968Z,61.77
2022-11-20T10:57:53.933Z,61.40
2022-11-20T11:00:42.001Z,60.70
2022-11-20T11:03:30.131Z,61.38
2022-11-20T11:06:21.927Z,61.30
2022-11-20T11:09:04.916Z,65.80
2022-11-20T11:11:45.970Z,53.60
2022-11-20T11:14:26.912Z,57.05
2022-11-20T11:17:14.931Z,60.47
2022-11-20T11:20:15.119Z,65.47
2022-11-20T11:23:13.938Z,62.35
2022-11-20T11:26:03.907Z,56.63
2022-11-20T11:28:51.922Z,56.42
2022-11-20T11:31:29.933Z,51.97
2022-11-20T11:34:28.950Z,52.70
2022-11-20T11:37:10.933Z,50.13
2022-11-20T11:40:22.737Z,52.67
2022-11-20T11:42:56.036Z,58.53
2022-11-20T11:45:43.944Z,58.60
2022-11-20T11:48:24.922Z,55.60
2022-11-20T11:51:05.991Z,63.70
2022-11-20T11:53:49.950Z,71.07
2022-11-20T11:56:31.081Z,56.08
2022-11-20T11:59:18.931Z,55.30
2022-11-20T12:02:04.018Z,59.03
2022-11-20T12:04:58.928Z,54.47
2022-11-20T12:08:12.123Z,54.10
2022-11-20T12:10:46.942Z,48.67
2022-11-20T12:13:43.913Z,55.40
2022-11-20T12:16:20.921Z,55.05
2022-11-20T12:19:08.922Z,55.38
2022-11-20T12:22:15.938Z,62.40
2022-11-20T12:25:09.002Z,58.65
2022-11-20T12:28:07.930Z,51.90
2022-11-20T12:31:10.030Z,59.55
2022-11-20T12:33:51.137Z,58.90
2022-11-20T12:36:34.929Z,64.68
2022-11-20T12:39:12.001Z,67.38
2022-11-20T12:42:15.962Z,55.70
2022-11-20T12:45:21.914Z,51.45
2022-11-20T12:48:24.945Z,65.97
2022-11-20T12:51:16.141Z,70.93
2022-11-20T12:54:08.934Z,67.90
2022-11-20T12:57:02.305Z,58.45
2022-11-20T13:00:02.942Z,68.90
2022-11-20T13:03:02.150Z,55.88
2022-11-20T13:05:44.920Z,59.15
2022-11-20T13:08:37.954Z,68.65
2022-11-20T13:11:28.972Z,59.20
2022-11-20T13:14:15.971Z,56.65
2022-11-20T13:17:13.910Z,54.15
2022-11-20T13:20:03.926Z,58.05
2022-11-20T13:22:52.694Z,57.00
2022-11-20T13:25:43.918Z,66.30
2022-11-20T13:28:18.798Z,53.65
2022-11-20T13:31:06.933Z,58.83
2022-11-20T13:33:48.981Z,67.07
2022-11-20T13:36:43.905Z,51.47
2022-11-20T13:39:58.015Z,60.33
2022-11-20T13:42:41.952Z,53.55
2022-11-20T13:45:40.917Z,57.38
2022-11-20T13:48:29.983Z,58.05
2022-11-20T13:51:06.980Z,65.10
2022-11-20T13:54:09.938Z,55.15
2022-11-20T13:57:08.931Z,79.25
2022-11-20T14:00:12.005Z,83.43
2022-11-20T14:03:14.912Z,50.80
2022-11-20T14:06:14.922Z,52.42
2022-11-20T14:09:02.949Z,61.78
2022-11-20T14:11:38.016Z,43.72
2022-11-20T14:14:27.103Z,48.53
2022-11-20T14:17:12.038Z,62.47
2022-11-20T14:20:00.957Z,58.92
2022-11-20T14:22:36.046Z,69.13
2022-11-20T14:25:23.915Z,74.82
2022-11-20T14:28:05.981Z,73.72
2022-11-20T14:30:54.916Z,76.97
2022-11-20T14:33:35.930Z,67.38
2022-11-20T14:36:35.115Z,70.03
2022-11-20T14:39:28.959Z,66.80
2022-11-20T14:42:02.996Z,72.20
2022-11-20T14:44:51.948Z,65.70
2022-11-20T14:47:36.988Z,58.88
2022-11-20T14:50:29.933Z,75.60
2022-11-20T14:53:08.014Z,71.68
2022-11-20T14:56:01.953Z,73.07
2022-11-20T14:58:39.012Z,62.38
2022-11-20T15:01:33.961Z,61.90
2022-11-20T15:04:15.969Z,58.03
2022-11-20T15:07:05.991Z,59.28
2022-11-20T15:09:46.937Z,76.70
2022-11-20T15:12:28.211Z,70.05
2022-11-20T15:15:15.949Z,80.22
2022-11-20T15:17:50.308Z,88.72
2022-11-20T15:20:40.935Z,78.72
2022-11-20T15:23:22.943Z,78.47
2022-11-20T15:26:04.061Z,76.68
2022-11-20T15:28:49.910Z,73.63
2022-11-20T15:31:37.956Z,77.88
2022-11-20T15:34:16.553Z,89.35
2022-11-20T15:37:03.939Z,85.93
2022-11-20T15:39:37.862Z,78.30
2022-11-20T15:42:25.913Z,75.18
2022-11-20T15:45:00.079Z,70.05
2022-11-20T15:47:49.938Z,68.82
2022-11-20T15:50:24.877Z,77.07
2022-11-20T15:53:12.928Z,79.07
2022-11-20T15:55:46.923Z,67.38
2022-11-20T15:58:34.956Z,77.75
2022-11-20T16:01:23.068Z,77.72
2022-11-20T16:04:04.030Z,69.28
2022-11-20T16:06:43.936Z,91.88
2022-11-20T16:09:24.985Z,74.32
2022-11-20T16:12:07.947Z,72.18
2022-11-20T16:15:13.343Z,81.28
2022-11-20T16:17:53.944Z,71.72
2022-11-20T16:20:41.931Z,72.53
2022-11-20T16:23:22.952Z,65.30
2022-11-20T16:26:10.946Z,73.70
2022-11-20T16:28:45.299Z,68.47
2022-11-20T16:31:33.956Z,73.20
2022-11-20T16:34:14.925Z,65.47
2022-11-20T16:36:56.024Z,70.25
2022-11-20T16:39:42.930Z,78.03
2022-11-20T16:42:23.935Z,72.88
2022-11-20T16:45:25.346Z,65.28
2022-11-20T16:48:14.048Z,73.97
2022-11-20T16:50:59.017Z,69.85
2022-11-20T16:53:46.922Z,64.80
2022-11-20T16:56:22.023Z,81.93
2022-11-20T16:59:09.946Z,78.68
2022-11-20T17:01:44.173Z,78.53
2022-11-20T17:04:30.934Z,75.35
2022-11-20T17:07:08.131Z,73.55
2022-11-20T17:09:55.941Z,80.38
2022-11-20T17:12:30.004Z,73.72
2022-11-20T17:15:19.952Z,74.18
2022-11-20T17:17:54.027Z,81.72
2022-11-20T17:20:40.940Z,72.38
2022-11-20T17:23:21.956Z,74.63
2022-11-20T17:26:13.941Z,93.00
2022-11-20T17:28:48.053Z,84.82
2022-11-20T17:31:36.952Z,107.82
2022-11-20T17:34:17.067Z,104.90
2022-11-20T17:37:03.952Z,95.90
2022-11-20T17:39:38.010Z,100.15
2022-11-20T17:42:35.958Z,84.18
2022-11-20T17:45:16.951Z,79.60
2022-11-20T17:48:03.957Z,79.53
2022-11-20T17:50:44.935Z,68.05
2022-11-20T17:53:38.959Z,77.22
2022-11-20T17:56:52.150Z,73.78
2022-11-20T17:59:38.945Z,79.32
2022-11-20T18:02:13.065Z,74.78
2022-11-20T18:04:59.938Z,91.85
2022-11-20T18:07:41.910Z,124.93
2022-11-20T18:10:35.938Z,121.50
2022-11-20T18:13:49.978Z,94.65
2022-11-20T18:16:44.922Z,83.95
2022-11-20T18:19:36.531Z,78.40
2022-11-20T18:22:22.808Z,121.40
2022-11-20T18:25:02.949Z,132.13
2022-11-20T18:27:50.946Z,170.77
2022-11-20T18:30:37.943Z,190.93
2022-11-20T18:33:28.513Z,163.95
2022-11-20T18:38:50.959Z,112.43
2022-11-20T18:41:46.749Z,104.90
2022-11-20T18:44:57.013Z,96.68
2022-11-20T18:47:37.429Z,85.88
2022-11-20T18:50:25.986Z,85.75
2022-11-20T18:53:06.967Z,92.35
2022-11-20T18:56:00.951Z,83.80
2022-11-20T18:58:48.957Z,78.40
2022-11-20T19:04:51.972Z,80.15
2022-11-20T19:07:26.133Z,87.97
2022-11-20T19:10:13.940Z,98.20
2022-11-20T19:12:54.047Z,83.28
2022-11-20T19:15:33.944Z,95.13
2022-11-20T19:18:15.005Z,95.65
2022-11-20T19:20:55.954Z,97.30
2022-11-20T19:23:37.010Z,122.63
2022-11-20T19:26:16.985Z,110.13
2022-11-20T19:29:04.963Z,80.65
2022-11-20T19:31:38.947Z,75.00
2022-11-20T19:34:26.972Z,65.97
2022-11-20T19:37:01.122Z,73.63
2022-11-20T19:39:49.955Z,71.97
2022-11-20T19:42:29.965Z,64.03
2022-11-20T19:45:17.975Z,66.20
2022-11-20T19:48:07.296Z,71.75
2022-11-20T19:50:56.005Z,70.72
2022-11-20T19:53:36.998Z,73.47
2022-11-20T19:56:18.223Z,65.55
2022-11-20T19:58:59.955Z,77.30
2022-11-20T20:01:41.226Z,68.97
2022-11-20T20:04:20.991Z,85.60
2022-11-20T20:07:10.028Z,76.28
2022-11-20T20:09:43.621Z,72.63
2022-11-20T20:12:30.962Z,69.78
2022-11-20T20:15:11.967Z,66.90
2022-11-20T20:17:58.992Z,59.83
2022-11-20T20:20:38.992Z,68.28
2022-11-20T20:23:20.046Z,64.07
2022-11-20T20:26:00.214Z,70.05
2022-11-20T20:28:49.969Z,60.95
2022-11-20T20:31:25.239Z,61.77
2022-11-20T20:34:12.954Z,54.72
2022-11-20T20:36:46.876Z,61.40
2022-11-20T20:39:35.975Z,53.88
2022-11-20T20:42:29.925Z,53.10
2022-11-20T20:45:17.945Z,34.33
2022-11-20T20:47:52.033Z,33.65
2022-11-20T20:50:38.979Z,41.42
2022-11-20T20:53:13.078Z,41.42
2022-11-20T20:56:08.982Z,35.25
2022-11-20T20:58:43.086Z,39.85
2022-11-20T21:01:35.017Z,34.88
2022-11-20T21:04:09.066Z,39.38
2022-11-20T21:06:55.981Z,30.42
2022-11-20T21:09:30.070Z,28.95
2022-11-20T21:12:17.966Z,35.08
2022-11-20T21:14:52.004Z,32.65
2022-11-20T21:17:39.021Z,34.65
2022-11-20T21:20:38.595Z,29.63
2022-11-20T21:23:18.988Z,33.88
2022-11-20T21:26:06.960Z,27.05
2022-11-20T21:28:40.971Z,29.70
2022-11-20T21:31:30.037Z,25.30
2022-11-20T21:34:04.532Z,19.80
2022-11-20T21:36:51.978Z,24.27
2022-11-20T21:39:31.949Z,33.45
2022-11-20T21:42:19.054Z,23.48
2022-11-20T21:44:59.997Z,24.23
2022-11-20T21:47:41.012Z,26.17
2022-11-20T21:50:21.963Z,27.05
2022-11-20T21:53:09.963Z,25.02
2022-11-20T21:55:49.978Z,28.30
2022-11-20T21:58:30.032Z,21.50
2022-11-20T22:01:16.005Z,27.33
2022-11-20T22:04:05.977Z,19.70
2022-11-20T22:09:20.970Z,23.92
2022-11-20T22:12:01.970Z,25.48
2022-11-20T22:14:55.954Z,26.38
2022-11-20T22:18:01.956Z,27.13
2022-11-20T22:20:42.961Z,27.58
2022-11-20T22:23:29.967Z,26.27
2022-11-20T22:26:08.065Z,24.08
2022-11-20T22:28:58.997Z,22.30
2022-11-20T22:31:34.015Z,23.85
2022-11-20T22:34:22.365Z,25.45
2022-11-20T22:36:56.063Z,22.33
2022-11-20T22:39:43.956Z,23.55
2022-11-20T22:42:24.972Z,23.10
2022-11-20T22:45:20.968Z,20.52
2022-11-20T22:48:07.989Z,23.08
2022-11-20T22:50:42.032Z,24.98
2022-11-20T22:53:28.990Z,20.02
2022-11-20T22:56:03.124Z,23.23
2022-11-20T22:58:51.974Z,23.73
2022-11-20T23:01:38.987Z,13.32
2022-11-20T23:04:26.184Z,24.27
2022-11-20T23:07:00.147Z,34.63
2022-11-20T23:09:46.990Z,13.05
2022-11-20T23:12:21.027Z,21.85
2022-11-20T23:15:07.971Z,20.27
2022-11-20T23:17:48.971Z,23.98
2022-11-20T23:20:42.972Z,22.48
2022-11-20T23:23:29.984Z,25.95
2022-11-20T23:26:07.030Z,27.15
2022-11-20T23:28:53.991Z,25.90
2022-11-20T23:31:28.024Z,21.40
2022-11-20T23:34:14.982Z,23.75
2022-11-20T23:36:55.966Z,26.40
2022-11-20T23:39:49.967Z,31.35
2022-11-20T23:42:36.969Z,29.20
2022-11-20T23:45:11.007Z,31.27
2022-11-20T23:47:57.977Z,31.33
2022-11-20T23:50:32.046Z,32.92
2022-11-20T23:53:21.005Z,33.08
2022-11-20T23:56:07.099Z,42.42
2022-11-20T23:58:54.982Z,29.10
